sensor_id;sensor_type;location;lat;lon;timestamp;P1;durP1;ratioP1;P2;durP2;ratioP2
53718;SDS011;39616;48.872;9.390;2023-06-22T00:00:17;10.23;;;6.82;;
53718;SDS011;39616;48.872;9.390;2023-06-22T00:02:48;7.32;;;6.18;;
53718;SDS011;39616;48.872;9.390;2023-06-22T00:05:18;10.70;;;6.38;;
53718;SDS011;39616;48.872;9.390;2023-06-22T00:07:48;11.63;;;6.57;;
53718;SDS011;39616;48.872;9.390;2023-06-22T00:10:18;13.43;;;7.97;;
53718;SDS011;39616;48.872;9.390;2023-06-22T00:12:49;12.40;;;8.13;;
53718;SDS011;39616;48.872;9.390;2023-06-22T00:15:19;12.48;;;7.55;;
53718;SDS011;39616;48.872;9.390;2023-06-22T00:17:50;9.35;;;7.13;;
53718;SDS011;39616;48.872;9.390;2023-06-22T00:20:21;10.32;;;6.43;;
53718;SDS011;39616;48.872;9.390;2023-06-22T00:22:52;9.23;;;7.22;;
53718;SDS011;39616;48.872;9.390;2023-06-22T00:25:23;9.00;;;6.93;;
53718;SDS011;39616;48.872;9.390;2023-06-22T00:27:54;10.50;;;6.85;;
53718;SDS011;39616;48.872;9.390;2023-06-22T00:30:24;9.80;;;7.22;;
53718;SDS011;39616;48.872;9.390;2023-06-22T00:32:54;11.05;;;6.80;;
53718;SDS011;39616;48.872;9.390;2023-06-22T00:35:25;10.50;;;6.60;;
53718;SDS011;39616;48.872;9.390;2023-06-22T00:37:59;8.43;;;6.63;;
53718;SDS011;39616;48.872;9.390;2023-06-22T00:40:31;11.95;;;7.00;;
53718;SDS011;39616;48.872;9.390;2023-06-22T00:43:02;11.57;;;6.57;;
53718;SDS011;39616;48.872;9.390;2023-06-22T00:45:33;12.05;;;5.97;;
53718;SDS011;39616;48.872;9.390;2023-06-22T00:48:03;11.18;;;6.68;;
53718;SDS011;39616;48.872;9.390;2023-06-22T00:50:34;11.13;;;7.05;;
53718;SDS011;39616;48.872;9.390;2023-06-22T00:53:06;12.40;;;7.45;;
53718;SDS011;39616;48.872;9.390;2023-06-22T00:55:38;11.90;;;7.22;;
53718;SDS011;39616;48.872;9.390;2023-06-22T00:58:21;10.38;;;6.13;;
53718;SDS011;39616;48.872;9.390;2023-06-22T01:00:51;10.20;;;6.90;;
53718;SDS011;39616;48.872;9.390;2023-06-22T01:03:22;14.05;;;7.18;;
53718;SDS011;39616;48.872;9.390;2023-06-22T01:05:52;10.57;;;7.55;;
53718;SDS011;39616;48.872;9.390;2023-06-22T01:08:31;8.25;;;7.05;;
53718;SDS011;39616;48.872;9.390;2023-06-22T01:11:26;9.68;;;6.97;;
53718;SDS011;39616;48.872;9.390;2023-06-22T01:16:40;13.38;;;7.75;;
53718;SDS011;39616;48.872;9.390;2023-06-22T01:21:48;12.05;;;7.85;;
53718;SDS011;39616;48.872;9.390;2023-06-22T01:24:28;17.13;;;7.80;;
53718;SDS011;39616;48.872;9.390;2023-06-22T01:29:58;13.93;;;8.45;;
53718;SDS011;39616;48.872;9.390;2023-06-22T01:32:31;11.80;;;8.35;;
53718;SDS011;39616;48.872;9.390;2023-06-22T01:35:05;11.80;;;8.18;;
53718;SDS011;39616;48.872;9.390;2023-06-22T01:37:37;12.45;;;8.13;;
53718;SDS011;39616;48.872;9.390;2023-06-22T01:40:08;13.77;;;8.10;;
53718;SDS011;39616;48.872;9.390;2023-06-22T01:42:39;12.20;;;8.07;;
53718;SDS011;39616;48.872;9.390;2023-06-22T01:45:10;18.17;;;9.38;;
53718;SDS011;39616;48.872;9.390;2023-06-22T01:47:42;11.40;;;8.15;;
53718;SDS011;39616;48.872;9.390;2023-06-22T01:50:12;15.73;;;8.13;;
53718;SDS011;39616;48.872;9.390;2023-06-22T01:52:43;14.63;;;8.02;;
53718;SDS011;39616;48.872;9.390;2023-06-22T01:55:13;13.52;;;7.95;;
53718;SDS011;39616;48.872;9.390;2023-06-22T01:57:44;13.18;;;8.43;;
53718;SDS011;39616;48.872;9.390;2023-06-22T02:00:15;13.25;;;7.90;;
53718;SDS011;39616;48.872;9.390;2023-06-22T02:05:43;10.55;;;7.88;;
53718;SDS011;39616;48.872;9.390;2023-06-22T02:08:20;11.70;;;7.32;;
53718;SDS011;39616;48.872;9.390;2023-06-22T02:10:53;10.75;;;7.75;;
53718;SDS011;39616;48.872;9.390;2023-06-22T02:13:26;12.40;;;8.40;;
53718;SDS011;39616;48.872;9.390;2023-06-22T02:15:57;12.70;;;8.60;;
53718;SDS011;39616;48.872;9.390;2023-06-22T02:18:28;14.05;;;7.70;;
53718;SDS011;39616;48.872;9.390;2023-06-22T02:20:58;11.52;;;8.27;;
53718;SDS011;39616;48.872;9.390;2023-06-22T02:23:29;9.93;;;7.75;;
53718;SDS011;39616;48.872;9.390;2023-06-22T02:25:59;10.57;;;8.13;;
53718;SDS011;39616;48.872;9.390;2023-06-22T02:28:30;12.48;;;8.27;;
53718;SDS011;39616;48.872;9.390;2023-06-22T02:31:00;10.68;;;7.57;;
53718;SDS011;39616;48.872;9.390;2023-06-22T02:33:30;14.07;;;7.95;;
53718;SDS011;39616;48.872;9.390;2023-06-22T02:36:01;12.75;;;7.43;;
53718;SDS011;39616;48.872;9.390;2023-06-22T02:38:35;10.73;;;7.78;;
53718;SDS011;39616;48.872;9.390;2023-06-22T02:41:06;12.48;;;8.55;;
53718;SDS011;39616;48.872;9.390;2023-06-22T02:43:36;11.13;;;7.70;;
53718;SDS011;39616;48.872;9.390;2023-06-22T02:46:07;13.00;;;7.35;;
53718;SDS011;39616;48.872;9.390;2023-06-22T02:48:37;14.23;;;7.53;;
53718;SDS011;39616;48.872;9.390;2023-06-22T02:51:07;11.05;;;8.50;;
53718;SDS011;39616;48.872;9.390;2023-06-22T02:53:38;10.25;;;7.50;;
53718;SDS011;39616;48.872;9.390;2023-06-22T02:56:08;8.95;;;7.15;;
53718;SDS011;39616;48.872;9.390;2023-06-22T02:58:38;11.20;;;6.88;;
53718;SDS011;39616;48.872;9.390;2023-06-22T03:01:09;9.40;;;7.45;;
53718;SDS011;39616;48.872;9.390;2023-06-22T03:03:40;9.40;;;7.28;;
53718;SDS011;39616;48.872;9.390;2023-06-22T03:06:10;10.63;;;8.02;;
53718;SDS011;39616;48.872;9.390;2023-06-22T03:08:43;12.80;;;7.38;;
53718;SDS011;39616;48.872;9.390;2023-06-22T03:11:14;11.27;;;7.68;;
53718;SDS011;39616;48.872;9.390;2023-06-22T03:13:44;9.27;;;7.72;;
53718;SDS011;39616;48.872;9.390;2023-06-22T03:16:16;11.75;;;8.10;;
53718;SDS011;39616;48.872;9.390;2023-06-22T03:18:46;9.00;;;7.57;;
53718;SDS011;39616;48.872;9.390;2023-06-22T03:21:17;11.43;;;8.18;;
53718;SDS011;39616;48.872;9.390;2023-06-22T03:23:47;9.63;;;7.72;;
53718;SDS011;39616;48.872;9.390;2023-06-22T03:26:17;12.27;;;7.82;;
53718;SDS011;39616;48.872;9.390;2023-06-22T03:28:48;12.30;;;7.95;;
53718;SDS011;39616;48.872;9.390;2023-06-22T03:31:18;10.13;;;7.22;;
53718;SDS011;39616;48.872;9.390;2023-06-22T03:33:51;10.75;;;7.57;;
53718;SDS011;39616;48.872;9.390;2023-06-22T03:36:21;14.63;;;8.52;;
53718;SDS011;39616;48.872;9.390;2023-06-22T03:38:54;13.48;;;8.60;;
53718;SDS011;39616;48.872;9.390;2023-06-22T03:41:25;13.00;;;6.93;;
53718;SDS011;39616;48.872;9.390;2023-06-22T03:43:55;14.98;;;7.40;;
53718;SDS011;39616;48.872;9.390;2023-06-22T03:46:25;13.73;;;7.38;;
53718;SDS011;39616;48.872;9.390;2023-06-22T03:48:56;15.38;;;8.10;;
53718;SDS011;39616;48.872;9.390;2023-06-22T03:51:26;14.38;;;7.95;;
53718;SDS011;39616;48.872;9.390;2023-06-22T03:53:56;15.35;;;8.38;;
53718;SDS011;39616;48.872;9.390;2023-06-22T03:56:27;14.82;;;7.82;;
53718;SDS011;39616;48.872;9.390;2023-06-22T03:58:57;13.40;;;8.20;;
53718;SDS011;39616;48.872;9.390;2023-06-22T04:01:27;11.70;;;7.13;;
53718;SDS011;39616;48.872;9.390;2023-06-22T04:03:58;14.10;;;7.38;;
53718;SDS011;39616;48.872;9.390;2023-06-22T04:06:28;9.80;;;6.78;;
53718;SDS011;39616;48.872;9.390;2023-06-22T04:08:58;14.65;;;8.02;;
53718;SDS011;39616;48.872;9.390;2023-06-22T04:11:30;13.77;;;8.60;;
53718;SDS011;39616;48.872;9.390;2023-06-22T04:14:01;14.90;;;7.93;;
53718;SDS011;39616;48.872;9.390;2023-06-22T04:16:31;14.00;;;8.10;;
53718;SDS011;39616;48.872;9.390;2023-06-22T04:19:01;10.38;;;6.68;;
53718;SDS011;39616;48.872;9.390;2023-06-22T04:21:32;10.85;;;7.20;;
53718;SDS011;39616;48.872;9.390;2023-06-22T04:24:02;12.13;;;8.10;;
53718;SDS011;39616;48.872;9.390;2023-06-22T04:26:32;12.65;;;7.28;;
53718;SDS011;39616;48.872;9.390;2023-06-22T04:29:07;10.90;;;7.90;;
53718;SDS011;39616;48.872;9.390;2023-06-22T04:31:38;10.35;;;7.75;;
53718;SDS011;39616;48.872;9.390;2023-06-22T04:34:09;10.43;;;7.03;;
53718;SDS011;39616;48.872;9.390;2023-06-22T04:36:40;11.05;;;6.70;;
53718;SDS011;39616;48.872;9.390;2023-06-22T04:39:11;13.88;;;7.38;;
53718;SDS011;39616;48.872;9.390;2023-06-22T04:41:41;11.90;;;7.55;;
53718;SDS011;39616;48.872;9.390;2023-06-22T04:44:12;11.93;;;7.15;;
53718;SDS011;39616;48.872;9.390;2023-06-22T04:46:42;15.20;;;7.82;;
53718;SDS011;39616;48.872;9.390;2023-06-22T04:49:13;12.65;;;7.13;;
53718;SDS011;39616;48.872;9.390;2023-06-22T04:51:43;12.63;;;7.45;;
53718;SDS011;39616;48.872;9.390;2023-06-22T04:54:13;12.43;;;7.43;;
53718;SDS011;39616;48.872;9.390;2023-06-22T04:56:44;12.60;;;7.30;;
53718;SDS011;39616;48.872;9.390;2023-06-22T04:59:16;11.80;;;7.50;;
53718;SDS011;39616;48.872;9.390;2023-06-22T05:01:48;12.27;;;7.03;;
53718;SDS011;39616;48.872;9.390;2023-06-22T05:04:22;15.30;;;7.53;;
53718;SDS011;39616;48.872;9.390;2023-06-22T05:06:55;11.25;;;7.68;;
53718;SDS011;39616;48.872;9.390;2023-06-22T05:09:26;13.77;;;7.90;;
53718;SDS011;39616;48.872;9.390;2023-06-22T05:11:56;10.82;;;7.53;;
53718;SDS011;39616;48.872;9.390;2023-06-22T05:14:27;16.77;;;8.75;;
53718;SDS011;39616;48.872;9.390;2023-06-22T05:16:58;13.30;;;7.45;;
53718;SDS011;39616;48.872;9.390;2023-06-22T05:19:28;11.70;;;7.15;;
53718;SDS011;39616;48.872;9.390;2023-06-22T05:22:03;8.98;;;6.68;;
53718;SDS011;39616;48.872;9.390;2023-06-22T05:24:34;13.65;;;7.35;;
53718;SDS011;39616;48.872;9.390;2023-06-22T05:27:04;11.10;;;6.43;;
53718;SDS011;39616;48.872;9.390;2023-06-22T05:29:35;13.13;;;6.18;;
53718;SDS011;39616;48.872;9.390;2023-06-22T05:32:07;9.38;;;6.38;;
53718;SDS011;39616;48.872;9.390;2023-06-22T05:34:37;9.80;;;5.80;;
53718;SDS011;39616;48.872;9.390;2023-06-22T05:37:08;10.52;;;6.45;;
53718;SDS011;39616;48.872;9.390;2023-06-22T05:39:39;8.82;;;6.13;;
53718;SDS011;39616;48.872;9.390;2023-06-22T05:42:09;11.13;;;6.72;;
53718;SDS011;39616;48.872;9.390;2023-06-22T05:44:40;10.82;;;6.30;;
53718;SDS011;39616;48.872;9.390;2023-06-22T05:47:10;11.02;;;6.05;;
53718;SDS011;39616;48.872;9.390;2023-06-22T05:49:41;11.02;;;6.13;;
53718;SDS011;39616;48.872;9.390;2023-06-22T05:52:11;7.65;;;5.47;;
53718;SDS011;39616;48.872;9.390;2023-06-22T05:54:41;7.88;;;5.50;;
53718;SDS011;39616;48.872;9.390;2023-06-22T05:57:13;9.70;;;5.43;;
53718;SDS011;39616;48.872;9.390;2023-06-22T05:59:43;13.48;;;6.15;;
53718;SDS011;39616;48.872;9.390;2023-06-22T06:02:13;5.47;;;4.75;;
53718;SDS011;39616;48.872;9.390;2023-06-22T06:04:44;8.05;;;5.43;;
53718;SDS011;39616;48.872;9.390;2023-06-22T06:07:14;6.90;;;5.17;;
53718;SDS011;39616;48.872;9.390;2023-06-22T06:09:47;8.02;;;5.10;;
53718;SDS011;39616;48.872;9.390;2023-06-22T06:12:18;6.43;;;4.60;;
53718;SDS011;39616;48.872;9.390;2023-06-22T06:14:48;6.72;;;5.60;;
53718;SDS011;39616;48.872;9.390;2023-06-22T06:17:18;7.70;;;4.65;;
53718;SDS011;39616;48.872;9.390;2023-06-22T06:19:48;10.73;;;4.60;;
53718;SDS011;39616;48.872;9.390;2023-06-22T06:22:19;9.93;;;4.80;;
53718;SDS011;39616;48.872;9.390;2023-06-22T06:24:51;6.57;;;4.20;;
53718;SDS011;39616;48.872;9.390;2023-06-22T06:27:21;6.60;;;4.50;;
53718;SDS011;39616;48.872;9.390;2023-06-22T06:29:51;5.97;;;4.35;;
53718;SDS011;39616;48.872;9.390;2023-06-22T06:32:21;8.18;;;4.32;;
53718;SDS011;39616;48.872;9.390;2023-06-22T06:34:52;5.90;;;4.55;;
53718;SDS011;39616;48.872;9.390;2023-06-22T06:37:22;7.32;;;4.63;;
53718;SDS011;39616;48.872;9.390;2023-06-22T06:39:52;7.25;;;4.85;;
53718;SDS011;39616;48.872;9.390;2023-06-22T06:42:23;6.35;;;4.25;;
53718;SDS011;39616;48.872;9.390;2023-06-22T06:44:54;8.73;;;3.67;;
53718;SDS011;39616;48.872;9.390;2023-06-22T06:47:25;6.03;;;4.13;;
53718;SDS011;39616;48.872;9.390;2023-06-22T06:49:55;7.00;;;3.97;;
53718;SDS011;39616;48.872;9.390;2023-06-22T06:52:25;8.32;;;3.78;;
53718;SDS011;39616;48.872;9.390;2023-06-22T06:54:56;5.05;;;3.20;;
53718;SDS011;39616;48.872;9.390;2023-06-22T06:57:26;8.93;;;3.72;;
53718;SDS011;39616;48.872;9.390;2023-06-22T06:59:58;7.03;;;3.35;;
53718;SDS011;39616;48.872;9.390;2023-06-22T07:02:29;6.78;;;4.40;;
53718;SDS011;39616;48.872;9.390;2023-06-22T07:04:59;7.15;;;3.75;;
53718;SDS011;39616;48.872;9.390;2023-06-22T07:07:30;6.32;;;4.15;;
53718;SDS011;39616;48.872;9.390;2023-06-22T07:10:00;6.38;;;4.03;;
53718;SDS011;39616;48.872;9.390;2023-06-22T07:12:31;4.40;;;3.58;;
53718;SDS011;39616;48.872;9.390;2023-06-22T07:15:05;3.75;;;3.20;;
53718;SDS011;39616;48.872;9.390;2023-06-22T07:17:39;7.32;;;3.67;;
53718;SDS011;39616;48.872;9.390;2023-06-22T07:20:11;6.97;;;3.40;;
53718;SDS011;39616;48.872;9.390;2023-06-22T07:22:42;5.57;;;3.28;;
53718;SDS011;39616;48.872;9.390;2023-06-22T07:25:14;8.45;;;4.25;;
53718;SDS011;39616;48.872;9.390;2023-06-22T07:30:36;10.35;;;3.38;;
53718;SDS011;39616;48.872;9.390;2023-06-22T07:33:06;5.22;;;3.05;;
53718;SDS011;39616;48.872;9.390;2023-06-22T07:35:38;4.07;;;2.83;;
53718;SDS011;39616;48.872;9.390;2023-06-22T07:38:08;5.70;;;2.83;;
53718;SDS011;39616;48.872;9.390;2023-06-22T07:40:39;7.53;;;3.17;;
53718;SDS011;39616;48.872;9.390;2023-06-22T07:43:09;6.35;;;2.97;;
53718;SDS011;39616;48.872;9.390;2023-06-22T07:45:39;6.35;;;3.03;;
53718;SDS011;39616;48.872;9.390;2023-06-22T07:48:11;5.28;;;3.25;;
53718;SDS011;39616;48.872;9.390;2023-06-22T07:50:42;4.93;;;2.92;;
53718;SDS011;39616;48.872;9.390;2023-06-22T07:53:12;17.67;;;3.00;;
53718;SDS011;39616;48.872;9.390;2023-06-22T07:55:42;6.85;;;2.90;;
53718;SDS011;39616;48.872;9.390;2023-06-22T07:58:13;5.82;;;2.58;;
53718;SDS011;39616;48.872;9.390;2023-06-22T08:00:43;8.90;;;3.50;;
53718;SDS011;39616;48.872;9.390;2023-06-22T08:03:13;6.13;;;2.75;;
53718;SDS011;39616;48.872;9.390;2023-06-22T08:05:44;6.50;;;3.08;;
53718;SDS011;39616;48.872;9.390;2023-06-22T08:08:14;7.38;;;2.95;;
53718;SDS011;39616;48.872;9.390;2023-06-22T08:10:44;8.48;;;3.10;;
53718;SDS011;39616;48.872;9.390;2023-06-22T08:13:15;6.38;;;2.72;;
53718;SDS011;39616;48.872;9.390;2023-06-22T08:15:45;4.20;;;2.45;;
53718;SDS011;39616;48.872;9.390;2023-06-22T08:18:15;6.75;;;2.42;;
53718;SDS011;39616;48.872;9.390;2023-06-22T08:20:46;7.95;;;2.40;;
53718;SDS011;39616;48.872;9.390;2023-06-22T08:23:16;10.60;;;3.28;;
53718;SDS011;39616;48.872;9.390;2023-06-22T08:25:47;7.00;;;2.65;;
53718;SDS011;39616;48.872;9.390;2023-06-22T08:28:18;8.30;;;2.42;;
53718;SDS011;39616;48.872;9.390;2023-06-22T08:30:48;6.80;;;2.80;;
53718;SDS011;39616;48.872;9.390;2023-06-22T08:33:18;5.47;;;2.75;;
53718;SDS011;39616;48.872;9.390;2023-06-22T08:35:49;5.35;;;2.22;;
53718;SDS011;39616;48.872;9.390;2023-06-22T08:38:20;7.72;;;2.33;;
53718;SDS011;39616;48.872;9.390;2023-06-22T08:40:50;5.22;;;2.70;;
53718;SDS011;39616;48.872;9.390;2023-06-22T08:43:20;6.45;;;2.78;;
53718;SDS011;39616;48.872;9.390;2023-06-22T08:45:51;8.40;;;2.60;;
53718;SDS011;39616;48.872;9.390;2023-06-22T08:48:21;8.60;;;3.03;;
53718;SDS011;39616;48.872;9.390;2023-06-22T08:50:51;6.95;;;2.55;;
53718;SDS011;39616;48.872;9.390;2023-06-22T08:53:21;4.82;;;2.70;;
53718;SDS011;39616;48.872;9.390;2023-06-22T08:55:52;6.07;;;2.80;;
53718;SDS011;39616;48.872;9.390;2023-06-22T08:58:22;4.95;;;2.53;;
53718;SDS011;39616;48.872;9.390;2023-06-22T09:00:54;8.73;;;2.80;;
53718;SDS011;39616;48.872;9.390;2023-06-22T09:03:24;5.90;;;2.72;;
53718;SDS011;39616;48.872;9.390;2023-06-22T09:05:56;11.77;;;5.57;;
53718;SDS011;39616;48.872;9.390;2023-06-22T09:08:26;8.77;;;3.40;;
53718;SDS011;39616;48.872;9.390;2023-06-22T09:10:56;6.10;;;2.47;;
53718;SDS011;39616;48.872;9.390;2023-06-22T09:13:29;9.15;;;2.58;;
53718;SDS011;39616;48.872;9.390;2023-06-22T09:16:00;7.35;;;2.80;;
53718;SDS011;39616;48.872;9.390;2023-06-22T09:18:31;7.28;;;2.83;;
53718;SDS011;39616;48.872;9.390;2023-06-22T09:21:01;7.82;;;2.70;;
53718;SDS011;39616;48.872;9.390;2023-06-22T09:23:31;10.00;;;2.80;;
53718;SDS011;39616;48.872;9.390;2023-06-22T09:26:02;10.15;;;3.65;;
53718;SDS011;39616;48.872;9.390;2023-06-22T09:28:34;7.13;;;2.78;;
53718;SDS011;39616;48.872;9.390;2023-06-22T09:31:04;8.23;;;3.40;;
53718;SDS011;39616;48.872;9.390;2023-06-22T09:33:35;7.97;;;2.75;;
53718;SDS011;39616;48.872;9.390;2023-06-22T09:36:06;8.70;;;2.80;;
53718;SDS011;39616;48.872;9.390;2023-06-22T09:38:39;9.77;;;3.17;;
53718;SDS011;39616;48.872;9.390;2023-06-22T09:41:10;7.28;;;3.33;;
53718;SDS011;39616;48.872;9.390;2023-06-22T09:43:40;6.97;;;3.30;;
53718;SDS011;39616;48.872;9.390;2023-06-22T09:46:10;10.05;;;3.40;;
53718;SDS011;39616;48.872;9.390;2023-06-22T09:48:41;9.32;;;2.85;;
53718;SDS011;39616;48.872;9.390;2023-06-22T09:51:11;8.02;;;3.28;;
53718;SDS011;39616;48.872;9.390;2023-06-22T09:53:41;10.07;;;3.08;;
53718;SDS011;39616;48.872;9.390;2023-06-22T09:56:12;7.07;;;3.03;;
53718;SDS011;39616;48.872;9.390;2023-06-22T09:58:45;12.10;;;3.38;;
53718;SDS011;39616;48.872;9.390;2023-06-22T10:01:16;6.25;;;3.22;;
53718;SDS011;39616;48.872;9.390;2023-06-22T10:03:46;8.38;;;3.55;;
53718;SDS011;39616;48.872;9.390;2023-06-22T10:06:17;13.10;;;3.30;;
53718;SDS011;39616;48.872;9.390;2023-06-22T10:08:47;6.93;;;2.80;;
53718;SDS011;39616;48.872;9.390;2023-06-22T10:11:18;8.82;;;3.22;;
53718;SDS011;39616;48.872;9.390;2023-06-22T10:13:49;7.57;;;3.70;;
53718;SDS011;39616;48.872;9.390;2023-06-22T10:16:19;8.68;;;3.35;;
53718;SDS011;39616;48.872;9.390;2023-06-22T10:18:49;10.32;;;3.15;;
53718;SDS011;39616;48.872;9.390;2023-06-22T10:21:19;6.65;;;3.08;;
53718;SDS011;39616;48.872;9.390;2023-06-22T10:23:50;7.13;;;2.72;;
53718;SDS011;39616;48.872;9.390;2023-06-22T10:26:20;9.70;;;3.17;;
53718;SDS011;39616;48.872;9.390;2023-06-22T10:28:51;9.93;;;2.92;;
53718;SDS011;39616;48.872;9.390;2023-06-22T10:31:21;8.10;;;2.95;;
53718;SDS011;39616;48.872;9.390;2023-06-22T10:33:51;8.75;;;3.08;;
53718;SDS011;39616;48.872;9.390;2023-06-22T10:36:23;9.73;;;3.78;;
53718;SDS011;39616;48.872;9.390;2023-06-22T10:38:55;6.60;;;2.80;;
53718;SDS011;39616;48.872;9.390;2023-06-22T10:41:26;7.13;;;3.00;;
53718;SDS011;39616;48.872;9.390;2023-06-22T10:43:59;10.35;;;2.80;;
53718;SDS011;39616;48.872;9.390;2023-06-22T10:46:29;9.65;;;2.88;;
53718;SDS011;39616;48.872;9.390;2023-06-22T10:48:59;9.18;;;2.90;;
53718;SDS011;39616;48.872;9.390;2023-06-22T10:51:30;7.28;;;3.25;;
53718;SDS011;39616;48.872;9.390;2023-06-22T10:54:01;8.23;;;3.47;;
53718;SDS011;39616;48.872;9.390;2023-06-22T10:56:31;10.77;;;3.10;;
53718;SDS011;39616;48.872;9.390;2023-06-22T10:59:03;8.68;;;2.72;;
53718;SDS011;39616;48.872;9.390;2023-06-22T11:01:34;6.80;;;3.10;;
53718;SDS011;39616;48.872;9.390;2023-06-22T11:04:04;10.70;;;3.30;;
53718;SDS011;39616;48.872;9.390;2023-06-22T11:06:34;6.28;;;2.70;;
53718;SDS011;39616;48.872;9.390;2023-06-22T11:09:05;8.07;;;2.92;;
53718;SDS011;39616;48.872;9.390;2023-06-22T11:11:35;8.85;;;3.58;;
53718;SDS011;39616;48.872;9.390;2023-06-22T11:14:05;10.70;;;2.75;;
53718;SDS011;39616;48.872;9.390;2023-06-22T11:16:35;7.60;;;3.65;;
53718;SDS011;39616;48.872;9.390;2023-06-22T11:19:06;9.40;;;3.17;;
53718;SDS011;39616;48.872;9.390;2023-06-22T11:21:36;9.65;;;3.17;;
53718;SDS011;39616;48.872;9.390;2023-06-22T11:24:07;10.52;;;2.55;;
53718;SDS011;39616;48.872;9.390;2023-06-22T11:26:40;9.70;;;3.22;;
53718;SDS011;39616;48.872;9.390;2023-06-22T11:29:10;8.15;;;3.13;;
53718;SDS011;39616;48.872;9.390;2023-06-22T11:31:41;7.93;;;2.70;;
53718;SDS011;39616;48.872;9.390;2023-06-22T11:34:12;9.85;;;3.17;;
53718;SDS011;39616;48.872;9.390;2023-06-22T11:36:43;7.38;;;3.00;;
53718;SDS011;39616;48.872;9.390;2023-06-22T11:39:14;7.40;;;3.10;;
53718;SDS011;39616;48.872;9.390;2023-06-22T11:41:44;8.50;;;2.83;;
53718;SDS011;39616;48.872;9.390;2023-06-22T11:44:15;13.85;;;3.20;;
53718;SDS011;39616;48.872;9.390;2023-06-22T11:46:45;10.00;;;3.53;;
53718;SDS011;39616;48.872;9.390;2023-06-22T11:49:15;9.48;;;3.50;;
53718;SDS011;39616;48.872;9.390;2023-06-22T11:51:46;8.35;;;3.40;;
53718;SDS011;39616;48.872;9.390;2023-06-22T11:54:16;11.05;;;2.72;;
53718;SDS011;39616;48.872;9.390;2023-06-22T11:56:46;8.50;;;2.75;;
53718;SDS011;39616;48.872;9.390;2023-06-22T11:59:17;10.45;;;3.00;;
53718;SDS011;39616;48.872;9.390;2023-06-22T12:01:47;12.60;;;3.28;;
53718;SDS011;39616;48.872;9.390;2023-06-22T12:04:18;16.75;;;3.40;;
53718;SDS011;39616;48.872;9.390;2023-06-22T12:06:48;11.15;;;3.53;;
53718;SDS011;39616;48.872;9.390;2023-06-22T12:09:19;8.77;;;3.38;;
53718;SDS011;39616;48.872;9.390;2023-06-22T12:11:49;11.82;;;2.90;;
53718;SDS011;39616;48.872;9.390;2023-06-22T12:14:19;9.68;;;3.67;;
53718;SDS011;39616;48.872;9.390;2023-06-22T12:16:50;7.68;;;3.33;;
53718;SDS011;39616;48.872;9.390;2023-06-22T12:19:23;17.35;;;2.90;;
53718;SDS011;39616;48.872;9.390;2023-06-22T12:21:53;6.60;;;3.00;;
53718;SDS011;39616;48.872;9.390;2023-06-22T12:24:24;10.88;;;3.75;;
53718;SDS011;39616;48.872;9.390;2023-06-22T12:26:54;15.57;;;3.75;;
53718;SDS011;39616;48.872;9.390;2023-06-22T12:29:24;12.93;;;3.53;;
53718;SDS011;39616;48.872;9.390;2023-06-22T12:31:54;10.63;;;3.20;;
53718;SDS011;39616;48.872;9.390;2023-06-22T12:34:25;15.88;;;3.67;;
53718;SDS011;39616;48.872;9.390;2023-06-22T12:36:55;14.70;;;3.58;;
53718;SDS011;39616;48.872;9.390;2023-06-22T12:39:25;10.35;;;3.30;;
53718;SDS011;39616;48.872;9.390;2023-06-22T12:41:56;9.75;;;3.35;;
53718;SDS011;39616;48.872;9.390;2023-06-22T12:44:26;15.57;;;4.15;;
53718;SDS011;39616;48.872;9.390;2023-06-22T12:46:56;18.77;;;4.15;;
53718;SDS011;39616;48.872;9.390;2023-06-22T12:49:27;40.22;;;6.75;;
53718;SDS011;39616;48.872;9.390;2023-06-22T12:51:57;29.17;;;4.57;;
53718;SDS011;39616;48.872;9.390;2023-06-22T12:54:27;23.98;;;4.38;;
53718;SDS011;39616;48.872;9.390;2023-06-22T12:56:59;18.75;;;4.57;;
53718;SDS011;39616;48.872;9.390;2023-06-22T12:59:29;8.95;;;4.25;;
53718;SDS011;39616;48.872;9.390;2023-06-22T13:02:00;11.00;;;3.83;;
53718;SDS011;39616;48.872;9.390;2023-06-22T13:04:30;94.75;;;11.13;;
53718;SDS011;39616;48.872;9.390;2023-06-22T13:07:00;23.65;;;4.78;;
53718;SDS011;39616;48.872;9.390;2023-06-22T13:09:31;83.72;;;10.60;;
53718;SDS011;39616;48.872;9.390;2023-06-22T13:12:01;10.82;;;3.83;;
53718;SDS011;39616;48.872;9.390;2023-06-22T13:14:32;52.25;;;8.43;;
53718;SDS011;39616;48.872;9.390;2023-06-22T13:17:02;14.38;;;3.85;;
53718;SDS011;39616;48.872;9.390;2023-06-22T13:19:32;22.73;;;6.00;;
53718;SDS011;39616;48.872;9.390;2023-06-22T13:22:03;10.10;;;4.20;;
53718;SDS011;39616;48.872;9.390;2023-06-22T13:24:34;16.90;;;4.82;;
53718;SDS011;39616;48.872;9.390;2023-06-22T13:27:04;14.15;;;3.65;;
53718;SDS011;39616;48.872;9.390;2023-06-22T13:29:34;69.82;;;9.90;;
53718;SDS011;39616;48.872;9.390;2023-06-22T13:32:05;46.92;;;7.68;;
53718;SDS011;39616;48.872;9.390;2023-06-22T13:34:35;25.73;;;6.53;;
53718;SDS011;39616;48.872;9.390;2023-06-22T13:37:06;69.32;;;9.02;;
53718;SDS011;39616;48.872;9.390;2023-06-22T13:39:36;14.57;;;4.75;;
53718;SDS011;39616;48.872;9.390;2023-06-22T13:42:06;16.90;;;4.40;;
53718;SDS011;39616;48.872;9.390;2023-06-22T13:44:37;16.55;;;4.18;;
53718;SDS011;39616;48.872;9.390;2023-06-22T13:47:07;24.98;;;4.30;;
53718;SDS011;39616;48.872;9.390;2023-06-22T13:49:38;19.63;;;4.70;;
53718;SDS011;39616;48.872;9.390;2023-06-22T13:52:08;14.68;;;5.15;;
53718;SDS011;39616;48.872;9.390;2023-06-22T13:54:40;16.63;;;4.93;;
53718;SDS011;39616;48.872;9.390;2023-06-22T13:57:10;10.02;;;3.92;;
53718;SDS011;39616;48.872;9.390;2023-06-22T13:59:40;10.95;;;3.97;;
53718;SDS011;39616;48.872;9.390;2023-06-22T14:02:11;8.80;;;3.90;;
53718;SDS011;39616;48.872;9.390;2023-06-22T14:04:41;18.75;;;4.63;;
53718;SDS011;39616;48.872;9.390;2023-06-22T14:07:11;16.58;;;4.80;;
53718;SDS011;39616;48.872;9.390;2023-06-22T14:09:42;18.30;;;4.72;;
53718;SDS011;39616;48.872;9.390;2023-06-22T14:12:12;27.35;;;5.95;;
53718;SDS011;39616;48.872;9.390;2023-06-22T14:14:43;14.80;;;4.80;;
53718;SDS011;39616;48.872;9.390;2023-06-22T14:17:13;16.73;;;4.43;;
53718;SDS011;39616;48.872;9.390;2023-06-22T14:19:44;13.50;;;4.60;;
53718;SDS011;39616;48.872;9.390;2023-06-22T14:22:14;16.23;;;4.22;;
53718;SDS011;39616;48.872;9.390;2023-06-22T14:24:45;15.95;;;4.60;;
53718;SDS011;39616;48.872;9.390;2023-06-22T14:27:16;10.13;;;3.97;;
53718;SDS011;39616;48.872;9.390;2023-06-22T14:29:46;16.35;;;4.65;;
53718;SDS011;39616;48.872;9.390;2023-06-22T14:32:16;11.38;;;4.50;;
53718;SDS011;39616;48.872;9.390;2023-06-22T14:34:47;10.80;;;4.10;;
53718;SDS011;39616;48.872;9.390;2023-06-22T14:37:17;11.30;;;4.03;;
53718;SDS011;39616;48.872;9.390;2023-06-22T14:39:47;10.60;;;3.83;;
53718;SDS011;39616;48.872;9.390;2023-06-22T14:42:18;10.38;;;3.72;;
53718;SDS011;39616;48.872;9.390;2023-06-22T14:44:48;12.88;;;4.15;;
53718;SDS011;39616;48.872;9.390;2023-06-22T14:47:18;14.75;;;4.13;;
53718;SDS011;39616;48.872;9.390;2023-06-22T14:49:49;17.08;;;4.53;;
53718;SDS011;39616;48.872;9.390;2023-06-22T14:52:19;11.07;;;3.80;;
53718;SDS011;39616;48.872;9.390;2023-06-22T14:54:50;8.38;;;3.13;;
53718;SDS011;39616;48.872;9.390;2023-06-22T14:57:22;8.25;;;2.90;;
53718;SDS011;39616;48.872;9.390;2023-06-22T14:59:53;11.55;;;3.53;;
53718;SDS011;39616;48.872;9.390;2023-06-22T15:02:23;10.95;;;3.58;;
53718;SDS011;39616;48.872;9.390;2023-06-22T15:04:53;13.90;;;3.22;;
53718;SDS011;39616;48.872;9.390;2023-06-22T15:07:24;15.68;;;3.67;;
53718;SDS011;39616;48.872;9.390;2023-06-22T15:09:54;9.30;;;2.45;;
53718;SDS011;39616;48.872;9.390;2023-06-22T15:12:24;10.05;;;2.92;;
53718;SDS011;39616;48.872;9.390;2023-06-22T15:14:55;10.65;;;2.78;;